createdAt,value
2018-12-18T00:02:10.752Z,53.33
2018-12-18T00:04:41.103Z,57.15
2018-12-18T00:07:10.421Z,56.33
2018-12-18T00:09:39.734Z,57.38
2018-12-18T00:12:09.020Z,62.43
2018-12-18T00:14:39.259Z,63.85
2018-12-18T00:17:08.813Z,58.57
2018-12-18T00:19:38.099Z,58.77
2018-12-18T00:22:08.216Z,60.57
2018-12-18T00:24:37.525Z,58.97
2018-12-18T00:27:06.820Z,57.67
2018-12-18T00:29:36.179Z,53.07
2018-12-18T00:32:05.912Z,56.70
2018-12-18T00:34:35.953Z,59.75
2018-12-18T00:37:06.308Z,59.36
2018-12-18T00:39:36.347Z,53.20
2018-12-18T00:44:53.508Z,58.77
2018-12-18T00:47:22.859Z,60.67
2018-12-18T00:49:52.224Z,58.87
2018-12-18T00:52:21.513Z,58.10
2018-12-18T00:54:51.083Z,62.13
2018-12-18T00:57:20.384Z,59.75
2018-12-18T00:59:49.702Z,59.97
2018-12-18T01:02:19.016Z,60.10
2018-12-18T01:04:48.511Z,59.50
2018-12-18T01:07:18.910Z,58.53
2018-12-18T01:09:48.329Z,64.67
2018-12-18T01:12:17.614Z,58.02
2018-12-18T01:14:46.949Z,63.40
2018-12-18T01:17:16.264Z,57.63
2018-12-18T01:19:45.626Z,57.37
2018-12-18T01:22:14.916Z,59.17
2018-12-18T01:24:44.283Z,65.78
2018-12-18T01:27:13.597Z,55.90
2018-12-18T01:29:42.958Z,65.37
2018-12-18T01:32:12.233Z,65.17
2018-12-18T01:34:41.582Z,58.40
2018-12-18T01:37:10.881Z,63.25
2018-12-18T01:39:40.351Z,64.77
2018-12-18T01:42:10.074Z,63.05
2018-12-18T01:44:39.372Z,56.43
2018-12-18T01:47:08.738Z,63.60
2018-12-18T01:49:38.044Z,60.37
2018-12-18T01:52:07.788Z,61.42
2018-12-18T01:54:37.768Z,56.33
2018-12-18T01:57:07.796Z,58.95
2018-12-18T01:59:37.777Z,56.45
2018-12-18T02:02:07.768Z,55.30
2018-12-18T02:04:37.889Z,61.30
2018-12-18T02:07:07.936Z,60.95
2018-12-18T02:09:40.204Z,58.95
2018-12-18T02:12:10.086Z,61.60
2018-12-18T02:14:39.428Z,62.70
2018-12-18T02:17:08.704Z,57.33
2018-12-18T02:19:38.507Z,67.78
2018-12-18T02:22:08.459Z,61.03
2018-12-18T02:24:38.647Z,63.20
2018-12-18T02:27:08.469Z,58.20
2018-12-18T02:29:38.493Z,61.02
2018-12-18T02:32:09.020Z,56.87
2018-12-18T02:34:39.128Z,61.35
2018-12-18T02:37:09.224Z,60.20
2018-12-18T02:39:39.040Z,60.35
2018-12-18T02:42:09.373Z,57.10
2018-12-18T02:44:39.119Z,52.43
2018-12-18T02:47:09.152Z,57.15
2018-12-18T02:49:39.167Z,53.30
2018-12-18T02:52:09.173Z,54.23
2018-12-18T02:54:39.211Z,55.98
2018-12-18T02:57:09.135Z,65.90
2018-12-18T02:59:39.179Z,60.30
2018-12-18T03:02:09.421Z,57.17
2018-12-18T03:04:39.489Z,66.37
2018-12-18T03:07:09.346Z,58.93
2018-12-18T03:09:39.450Z,54.60
2018-12-18T03:12:09.706Z,65.72
2018-12-18T03:14:39.830Z,62.90
2018-12-18T03:17:09.700Z,60.90
2018-12-18T03:19:39.728Z,64.67
2018-12-18T03:22:10.105Z,62.36
2018-12-18T03:24:40.173Z,57.27
2018-12-18T03:27:10.212Z,60.85
2018-12-18T03:29:40.287Z,64.92
2018-12-18T03:32:14.400Z,60.05
2018-12-18T03:34:43.810Z,67.77
2018-12-18T03:37:13.332Z,63.77
2018-12-18T03:39:42.629Z,59.67
2018-12-18T03:42:11.923Z,67.87
2018-12-18T03:44:41.361Z,60.20
2018-12-18T03:47:10.817Z,59.10
2018-12-18T03:49:45.253Z,63.20
2018-12-18T03:52:14.531Z,62.13
2018-12-18T03:54:43.939Z,56.83
2018-12-18T03:57:13.244Z,52.70
2018-12-18T03:59:42.588Z,55.63
2018-12-18T04:02:12.034Z,58.27
2018-12-18T04:04:41.699Z,55.38
2018-12-18T04:07:11.688Z,58.33
2018-12-18T04:09:41.672Z,58.38
2018-12-18T04:12:15.806Z,54.73
2018-12-18T04:14:45.241Z,58.23
2018-12-18T04:17:14.509Z,55.33
2018-12-18T04:19:43.843Z,58.07
2018-12-18T04:22:13.115Z,61.98
2018-12-18T04:24:42.476Z,56.47
2018-12-18T04:27:12.332Z,55.95
2018-12-18T04:29:42.368Z,57.27
2018-12-18T04:32:12.316Z,69.60
2018-12-18T04:34:43.174Z,58.05
2018-12-18T04:37:12.811Z,64.07
2018-12-18T04:39:42.460Z,68.60
2018-12-18T04:42:12.452Z,59.20
2018-12-18T04:44:42.487Z,71.30
2018-12-18T04:47:12.559Z,62.70
2018-12-18T04:49:42.638Z,66.75
2018-12-18T04:52:12.467Z,62.03
2018-12-18T04:54:42.769Z,59.70
2018-12-18T04:57:12.660Z,60.85
2018-12-18T04:59:42.736Z,63.65
2018-12-18T05:02:12.732Z,60.63
2018-12-18T05:04:49.827Z,62.35
2018-12-18T05:07:14.022Z,65.70
2018-12-18T05:09:43.436Z,58.30
2018-12-18T05:12:13.434Z,65.67
2018-12-18T05:14:43.410Z,64.05
2018-12-18T05:17:13.472Z,63.25
2018-12-18T05:19:43.423Z,60.15
2018-12-18T05:22:13.942Z,57.50
2018-12-18T05:24:43.938Z,55.23
2018-12-18T05:27:14.223Z,56.77
2018-12-18T05:29:43.846Z,66.65
2018-12-18T05:32:13.840Z,58.50
2018-12-18T05:34:43.980Z,64.87
2018-12-18T05:37:13.882Z,65.08
2018-12-18T05:39:44.800Z,61.53
2018-12-18T05:42:14.164Z,64.13
2018-12-18T05:44:43.995Z,62.25
2018-12-18T05:47:14.175Z,63.25
2018-12-18T05:49:44.317Z,62.47
2018-12-18T05:52:14.251Z,64.15
2018-12-18T05:54:44.180Z,60.00
2018-12-18T05:57:14.284Z,60.30
2018-12-18T05:59:44.304Z,64.87
2018-12-18T06:02:14.426Z,59.98
2018-12-18T06:04:44.336Z,56.18
2018-12-18T06:07:14.403Z,59.93
2018-12-18T06:09:44.296Z,65.45
2018-12-18T06:12:13.650Z,64.60
2018-12-18T06:14:43.062Z,64.73
2018-12-18T06:17:12.480Z,71.53
2018-12-18T06:19:41.945Z,75.23
2018-12-18T06:22:11.267Z,70.07
2018-12-18T06:24:40.646Z,72.47
2018-12-18T06:27:10.534Z,72.63
2018-12-18T06:29:39.951Z,79.50
2018-12-18T06:32:09.300Z,76.93
2018-12-18T06:34:38.607Z,74.60
2018-12-18T06:37:07.921Z,80.80
2018-12-18T06:39:37.215Z,82.13
2018-12-18T06:42:06.706Z,78.70
2018-12-18T06:44:36.108Z,85.70
2018-12-18T06:47:05.582Z,83.27
2018-12-18T06:49:35.052Z,83.43
2018-12-18T06:52:04.538Z,82.00
2018-12-18T06:54:33.869Z,73.13
2018-12-18T06:57:03.389Z,80.97
2018-12-18T06:59:32.886Z,68.53
2018-12-18T07:02:02.218Z,70.35
2018-12-18T07:04:31.565Z,77.62
2018-12-18T07:07:00.915Z,73.03
2018-12-18T07:09:30.292Z,72.97
2018-12-18T07:11:59.773Z,70.40
2018-12-18T07:14:29.107Z,65.97
2018-12-18T07:16:58.650Z,78.37
2018-12-18T07:19:28.033Z,70.97
2018-12-18T07:21:57.556Z,68.90
2018-12-18T07:24:26.955Z,68.83
2018-12-18T07:26:56.361Z,72.50
2018-12-18T07:29:25.700Z,72.67
2018-12-18T07:31:55.247Z,81.07
2018-12-18T07:34:24.605Z,70.52
2018-12-18T07:36:53.972Z,68.65
2018-12-18T07:39:23.308Z,67.10
2018-12-18T07:41:52.685Z,65.67
2018-12-18T07:44:22.111Z,67.35
2018-12-18T07:46:51.483Z,66.45
2018-12-18T07:49:20.807Z,75.43
2018-12-18T07:51:50.116Z,78.00
2018-12-18T07:54:19.475Z,69.63
2018-12-18T07:56:48.859Z,76.10
2018-12-18T07:59:18.212Z,66.75
2018-12-18T08:01:47.557Z,70.60
2018-12-18T08:04:18.333Z,68.42
2018-12-18T08:06:47.635Z,70.27
2018-12-18T08:09:20.319Z,77.22
2018-12-18T08:11:49.710Z,71.67
2018-12-18T08:14:19.031Z,70.97
2018-12-18T08:16:48.399Z,71.07
2018-12-18T08:19:17.830Z,76.35
2018-12-18T08:21:47.801Z,76.40
2018-12-18T08:24:17.818Z,72.92
2018-12-18T08:26:49.420Z,79.27
2018-12-18T08:29:18.875Z,77.65
2018-12-18T08:31:48.242Z,66.87
2018-12-18T08:34:17.881Z,71.97
2018-12-18T08:36:48.219Z,67.15
2018-12-18T08:39:18.136Z,71.72
2018-12-18T08:41:49.186Z,72.50
2018-12-18T08:44:18.643Z,75.37
2018-12-18T08:46:48.125Z,82.92
2018-12-18T08:54:22.058Z,73.67
2018-12-18T08:56:51.470Z,65.53
2018-12-18T08:59:20.772Z,80.33
2018-12-18T09:01:50.166Z,72.87
2018-12-18T09:04:19.514Z,70.27
2018-12-18T09:06:49.147Z,74.32
2018-12-18T09:09:19.200Z,69.92
2018-12-18T09:11:49.038Z,69.67
2018-12-18T09:14:19.049Z,79.95
2018-12-18T09:16:54.118Z,79.60
2018-12-18T09:19:23.413Z,70.40
2018-12-18T09:21:52.717Z,77.00
2018-12-18T09:24:22.037Z,72.78
2018-12-18T09:26:51.366Z,70.00
2018-12-18T09:29:20.734Z,69.73
2018-12-18T09:31:50.162Z,68.03
2018-12-18T09:34:19.496Z,71.50
2018-12-18T09:36:49.503Z,78.47
2018-12-18T09:39:21.538Z,73.15
2018-12-18T09:41:52.942Z,76.53
2018-12-18T09:44:22.324Z,81.03
2018-12-18T09:46:51.845Z,69.80
2018-12-18T09:49:21.253Z,74.80
2018-12-18T09:51:50.567Z,69.00
2018-12-18T09:54:20.642Z,69.80
2018-12-18T09:56:50.919Z,77.47
2018-12-18T09:59:21.430Z,67.17
2018-12-18T10:01:51.507Z,66.53
2018-12-18T10:04:21.605Z,71.10
2018-12-18T10:06:51.476Z,72.67
2018-12-18T10:09:21.623Z,67.50
2018-12-18T10:11:51.472Z,65.40
2018-12-18T10:14:21.423Z,67.53
2018-12-18T10:16:51.507Z,66.05
2018-12-18T10:19:21.472Z,64.77
2018-12-18T10:21:51.687Z,62.55
2018-12-18T10:24:21.744Z,60.43
2018-12-18T10:26:51.745Z,62.27
2018-12-18T10:29:21.792Z,62.90
2018-12-18T10:31:51.834Z,60.05
2018-12-18T10:34:22.059Z,62.13
2018-12-18T10:36:51.399Z,63.57
2018-12-18T10:39:20.900Z,62.37
2018-12-18T10:41:50.271Z,63.60
2018-12-18T10:44:19.578Z,57.37
2018-12-18T10:46:48.986Z,63.98
2018-12-18T10:49:18.312Z,66.77
2018-12-18T10:51:47.704Z,65.63
2018-12-18T10:54:17.038Z,58.10
2018-12-18T10:56:46.483Z,61.47
2018-12-18T10:59:15.890Z,65.53
2018-12-18T11:01:48.827Z,61.20
2018-12-18T11:04:18.169Z,70.23
2018-12-18T11:06:47.514Z,77.47
2018-12-18T11:09:16.835Z,71.47
2018-12-18T11:11:46.179Z,66.80
2018-12-18T11:14:15.500Z,71.20
2018-12-18T11:16:44.829Z,67.93
2018-12-18T11:19:14.223Z,67.53
2018-12-18T11:21:43.541Z,64.63
2018-12-18T11:24:12.893Z,67.27
2018-12-18T11:26:42.230Z,66.87
2018-12-18T11:29:11.632Z,72.40
2018-12-18T11:31:40.960Z,71.87
2018-12-18T11:34:10.234Z,75.65
2018-12-18T11:36:39.758Z,72.33
2018-12-18T11:39:09.283Z,66.70
2018-12-18T11:41:38.625Z,67.43
2018-12-18T11:44:08.049Z,71.40
2018-12-18T11:46:37.443Z,69.23
2018-12-18T11:49:06.726Z,69.55
2018-12-18T11:51:36.180Z,69.57
2018-12-18T11:54:05.453Z,58.45
2018-12-18T11:56:34.764Z,66.22
2018-12-18T11:59:04.121Z,61.37
2018-12-18T12:01:33.420Z,59.20
2018-12-18T12:04:03.180Z,56.30
2018-12-18T12:06:32.497Z,58.68
2018-12-18T12:09:01.855Z,59.53
2018-12-18T12:11:31.155Z,67.10
2018-12-18T12:14:00.520Z,58.30
2018-12-18T12:16:29.885Z,57.27
2018-12-18T12:18:59.286Z,55.52
2018-12-18T12:21:28.626Z,55.30
2018-12-18T12:24:04.454Z,60.57
2018-12-18T12:26:34.599Z,59.13
2018-12-18T12:29:03.984Z,61.80
2018-12-18T12:31:33.512Z,52.70
2018-12-18T12:34:02.868Z,54.50
2018-12-18T12:36:32.181Z,53.37
2018-12-18T12:39:01.596Z,50.48
2018-12-18T12:41:30.903Z,49.20
2018-12-18T12:44:00.417Z,48.07
2018-12-18T12:46:29.772Z,40.78
2018-12-18T12:49:03.238Z,41.23
2018-12-18T12:51:33.321Z,34.67
2018-12-18T12:54:03.677Z,36.37
2018-12-18T12:56:33.138Z,40.35
2018-12-18T12:59:02.575Z,33.80
2018-12-18T13:01:31.929Z,36.40
2018-12-18T13:04:01.279Z,37.93
2018-12-18T13:06:36.226Z,39.83
2018-12-18T13:09:01.925Z,37.93
2018-12-18T13:11:31.466Z,39.77
2018-12-18T13:14:00.837Z,46.84
2018-12-18T13:16:30.243Z,39.10
2018-12-18T13:18:59.668Z,44.87
2018-12-18T13:21:29.016Z,46.20
2018-12-18T13:23:58.369Z,46.05
2018-12-18T13:26:27.683Z,46.13
2018-12-18T13:28:56.996Z,38.17
2018-12-18T13:31:26.543Z,41.35
2018-12-18T13:33:56.545Z,34.20
2018-12-18T13:36:26.536Z,37.13
2018-12-18T13:38:56.550Z,35.25
2018-12-18T13:41:26.584Z,39.48
2018-12-18T13:43:56.654Z,34.67
2018-12-18T13:46:25.964Z,35.63
2018-12-18T13:48:55.405Z,37.07
2018-12-18T13:51:24.713Z,38.60
2018-12-18T13:53:54.010Z,33.53
2018-12-18T13:56:23.419Z,31.00
2018-12-18T13:58:52.739Z,36.70
2018-12-18T14:01:22.058Z,31.27
2018-12-18T14:03:51.369Z,37.17
2018-12-18T14:06:20.915Z,30.30
2018-12-18T14:08:50.208Z,30.33
2018-12-18T14:11:19.563Z,26.87
2018-12-18T14:13:48.871Z,31.87
2018-12-18T14:16:18.299Z,28.27
2018-12-18T14:18:47.665Z,32.03
2018-12-18T14:21:16.955Z,35.43
2018-12-18T14:23:46.280Z,28.83
2018-12-18T14:26:15.600Z,29.70
2018-12-18T14:28:44.958Z,29.97
2018-12-18T14:31:14.314Z,28.60
2018-12-18T14:33:43.607Z,27.10
2018-12-18T14:36:12.895Z,31.20
2018-12-18T14:38:42.245Z,30.10
2018-12-18T14:41:11.593Z,32.00
2018-12-18T14:43:40.973Z,27.37
2018-12-18T14:46:10.298Z,29.47
2018-12-18T14:48:39.578Z,33.73
2018-12-18T14:51:08.937Z,34.83
2018-12-18T14:53:38.215Z,36.73
2018-12-18T14:56:07.627Z,37.33
2018-12-18T14:58:36.933Z,34.23
2018-12-18T15:01:06.277Z,33.90
2018-12-18T15:03:35.986Z,30.27
2018-12-18T15:06:05.421Z,28.07
2018-12-18T15:08:34.769Z,28.53
2018-12-18T15:11:04.076Z,33.53
2018-12-18T15:13:33.453Z,29.37
2018-12-18T15:16:02.785Z,29.13
2018-12-18T15:18:32.101Z,27.93
2018-12-18T15:21:01.360Z,29.00
2018-12-18T15:23:30.708Z,29.17
2018-12-18T15:25:59.969Z,29.83
2018-12-18T15:28:29.355Z,26.10
2018-12-18T15:30:58.734Z,26.43
2018-12-18T15:33:28.572Z,28.52
2018-12-18T15:35:58.647Z,25.60
2018-12-18T15:38:28.485Z,26.50
2018-12-18T15:40:58.547Z,24.72
2018-12-18T15:43:28.456Z,27.27
2018-12-18T15:45:58.902Z,29.73
2018-12-18T15:48:29.137Z,26.82
2018-12-18T15:50:59.020Z,27.67
2018-12-18T15:53:29.552Z,23.07
2018-12-18T15:55:59.154Z,29.35
2018-12-18T15:58:29.182Z,25.52
2018-12-18T16:00:59.402Z,30.20
2018-12-18T16:03:29.156Z,25.72
2018-12-18T16:05:59.205Z,26.77
2018-12-18T16:08:29.426Z,24.57
2018-12-18T16:10:59.335Z,26.33
2018-12-18T16:13:30.017Z,22.27
2018-12-18T16:15:59.980Z,22.07
2018-12-18T16:18:29.943Z,27.85
2018-12-18T16:21:00.061Z,28.92
2018-12-18T16:23:29.891Z,28.83
2018-12-18T16:25:59.923Z,25.60
2018-12-18T16:28:29.971Z,21.77
2018-12-18T16:30:59.991Z,26.65
2018-12-18T16:33:30.010Z,27.03
2018-12-18T16:35:59.944Z,19.25
2018-12-18T16:38:29.983Z,20.30
2018-12-18T16:40:59.845Z,25.77
2018-12-18T16:43:29.227Z,23.00
2018-12-18T16:49:07.848Z,25.77
2018-12-18T16:51:37.309Z,19.47
2018-12-18T16:54:07.058Z,25.77
2018-12-18T16:56:36.531Z,25.47
2018-12-18T16:59:06.086Z,25.53
2018-12-18T17:01:35.497Z,27.87
2018-12-18T17:04:05.503Z,25.50
2018-12-18T17:06:35.602Z,23.95
2018-12-18T17:09:07.378Z,21.47
2018-12-18T17:11:36.835Z,24.60
2018-12-18T17:14:06.248Z,25.60
2018-12-18T17:16:35.586Z,22.77
2018-12-18T17:19:05.639Z,22.60
2018-12-18T17:21:35.724Z,20.95
2018-12-18T17:24:05.603Z,22.35
2018-12-18T17:26:35.594Z,20.48
2018-12-18T17:29:05.721Z,23.20
2018-12-18T17:31:35.626Z,23.30
2018-12-18T17:34:05.781Z,20.80
2018-12-18T17:36:36.031Z,19.52
2018-12-18T17:39:08.206Z,23.45
2018-12-18T17:41:37.485Z,20.13
2018-12-18T17:44:10.711Z,20.30
2018-12-18T17:46:40.072Z,26.83
2018-12-18T17:49:09.387Z,20.10
2018-12-18T17:51:38.793Z,20.17
2018-12-18T17:54:08.095Z,16.77
2018-12-18T17:56:37.425Z,19.20
2018-12-18T17:59:06.682Z,19.27
2018-12-18T18:01:36.009Z,18.03
2018-12-18T18:04:05.832Z,21.93
2018-12-18T18:06:35.872Z,18.92
2018-12-18T18:09:10.462Z,20.50
2018-12-18T18:11:39.822Z,22.93
2018-12-18T18:14:09.107Z,22.00
2018-12-18T18:16:38.485Z,20.07
2018-12-18T18:19:07.823Z,17.43
2018-12-18T18:21:41.002Z,19.90
2018-12-18T18:24:10.348Z,20.10
2018-12-18T18:26:39.636Z,16.23
2018-12-18T18:29:09.010Z,13.37
2018-12-18T18:31:38.334Z,16.03
2018-12-18T18:34:07.741Z,16.47
2018-12-18T18:36:37.310Z,16.90
2018-12-18T18:39:08.759Z,15.20
2018-12-18T18:41:38.052Z,16.17
2018-12-18T18:44:07.379Z,15.63
2018-12-18T18:46:36.889Z,15.23
2018-12-18T18:49:06.189Z,15.90
2018-12-18T18:51:35.504Z,18.30
2018-12-18T18:54:04.942Z,17.13
2018-12-18T18:56:34.407Z,16.33
2018-12-18T18:59:03.753Z,14.97
2018-12-18T19:01:33.063Z,15.18
2018-12-18T19:04:02.617Z,17.90
2018-12-18T19:06:31.916Z,16.97
2018-12-18T19:09:01.318Z,13.63
2018-12-18T19:11:30.625Z,14.30
2018-12-18T19:13:59.956Z,12.83
2018-12-18T19:16:29.315Z,9.67
2018-12-18T19:18:58.814Z,15.67
2018-12-18T19:21:28.127Z,11.50
2018-12-18T19:23:57.554Z,14.00
2018-12-18T19:26:26.855Z,13.55
2018-12-18T19:28:56.290Z,13.35
2018-12-18T19:31:25.899Z,14.63
2018-12-18T19:33:55.461Z,11.63
2018-12-18T19:36:25.501Z,10.67
2018-12-18T19:38:55.099Z,12.47
2018-12-18T19:41:24.744Z,16.90
2018-12-18T19:43:54.400Z,14.83
2018-12-18T19:46:24.048Z,11.75
2018-12-18T19:48:53.685Z,17.15
2018-12-18T19:51:23.767Z,14.13
2018-12-18T19:53:53.429Z,11.63
2018-12-18T19:56:23.111Z,13.15
2018-12-18T19:58:52.791Z,14.70
2018-12-18T20:01:22.056Z,14.03
2018-12-18T20:03:51.402Z,12.95
2018-12-18T20:06:20.701Z,13.93
2018-12-18T20:08:49.968Z,15.08
2018-12-18T20:11:19.244Z,11.10
2018-12-18T20:13:48.589Z,11.60
2018-12-18T20:16:17.877Z,14.53
2018-12-18T20:18:47.244Z,15.20
2018-12-18T20:21:16.552Z,14.50
2018-12-18T20:23:45.869Z,16.73
2018-12-18T20:26:15.355Z,12.23
2018-12-18T20:28:44.682Z,12.37
2018-12-18T20:31:13.977Z,15.43
2018-12-18T20:33:43.288Z,18.87
2018-12-18T20:36:12.545Z,10.18
2018-12-18T20:38:41.857Z,14.23
2018-12-18T20:41:11.122Z,15.63
2018-12-18T20:43:40.464Z,19.13
2018-12-18T20:46:09.724Z,12.23
2018-12-18T20:48:39.055Z,12.33
2018-12-18T20:51:08.547Z,15.70
2018-12-18T20:53:43.009Z,12.07
2018-12-18T20:56:12.524Z,13.23
2018-12-18T20:58:41.841Z,12.10
2018-12-18T21:01:11.238Z,14.03
2018-12-18T21:03:40.544Z,13.07
2018-12-18T21:06:09.880Z,11.50
2018-12-18T21:08:39.246Z,14.03
2018-12-18T21:11:09.180Z,14.25
2018-12-18T21:13:39.579Z,16.30
2018-12-18T21:16:09.224Z,17.40
2018-12-18T21:18:39.027Z,14.60
2018-12-18T21:21:15.226Z,15.90
2018-12-18T21:23:40.274Z,14.23
2018-12-18T21:26:09.640Z,13.53
2018-12-18T21:34:39.753Z,14.00
2018-12-18T21:37:09.750Z,17.35
2018-12-18T21:39:39.662Z,14.05
2018-12-18T21:42:09.690Z,12.47
2018-12-18T21:44:39.826Z,16.85
2018-12-18T21:47:09.746Z,16.40
2018-12-18T21:49:47.327Z,17.02
2018-12-18T21:52:16.847Z,17.23
2018-12-18T21:54:46.093Z,18.00
2018-12-18T21:57:19.750Z,18.23
2018-12-18T21:59:53.251Z,17.63
2018-12-18T22:02:26.742Z,11.83
2018-12-18T22:05:01.294Z,13.30
2018-12-18T22:07:30.653Z,15.57
2018-12-18T22:09:59.912Z,14.43
2018-12-18T22:12:29.250Z,12.70
2018-12-18T22:14:58.581Z,12.73
2018-12-18T22:17:28.069Z,15.55
2018-12-18T22:19:57.376Z,10.72
2018-12-18T22:22:26.646Z,14.30
2018-12-18T22:24:55.914Z,10.37
2018-12-18T22:27:25.113Z,11.93
2018-12-18T22:29:54.414Z,11.77
2018-12-18T22:32:23.694Z,11.07
2018-12-18T22:34:55.830Z,10.23
2018-12-18T22:37:25.068Z,10.50
2018-12-18T22:39:54.379Z,13.25
2018-12-18T22:42:23.879Z,12.17
2018-12-18T22:44:53.249Z,13.23
2018-12-18T22:47:22.579Z,13.13
2018-12-18T22:49:51.901Z,12.33
2018-12-18T22:52:21.186Z,10.58
2018-12-18T22:54:50.447Z,12.20
2018-12-18T22:57:19.806Z,10.60
2018-12-18T22:59:49.166Z,12.57
2018-12-18T23:02:18.669Z,11.90
2018-12-18T23:04:48.040Z,11.70
2018-12-18T23:07:17.369Z,13.13
2018-12-18T23:09:46.740Z,11.05
2018-12-18T23:12:16.108Z,12.90
2018-12-18T23:14:45.381Z,8.60
2018-12-18T23:17:14.655Z,11.57
2018-12-18T23:19:44.092Z,10.00
2018-12-18T23:22:13.395Z,16.43
2018-12-18T23:24:42.973Z,10.13
2018-12-18T23:27:13.054Z,10.30
2018-12-18T23:29:43.482Z,11.80
2018-12-18T23:32:13.414Z,12.03
2018-12-18T23:34:43.334Z,11.50
2018-12-18T23:37:13.277Z,9.10
2018-12-18T23:39:43.372Z,8.88
2018-12-18T23:42:13.337Z,13.08
2018-12-18T23:44:43.598Z,11.50
2018-12-18T23:47:13.333Z,12.70
2018-12-18T23:49:43.440Z,10.15
2018-12-18T23:52:13.554Z,8.93
2018-12-18T23:54:43.364Z,7.97
2018-12-18T23:57:13.471Z,9.88
2018-12-18T23:59:43.349Z,11.22
